createdAt,value
2023-03-12T00:00:12.077Z,22.76
2023-03-12T00:01:21.090Z,28.56
2023-03-12T00:02:11.146Z,36.50
2023-03-12T00:03:11.085Z,26.72
2023-03-12T00:04:11.125Z,25.26
2023-03-12T00:05:11.078Z,27.24
2023-03-12T00:06:11.294Z,29.78
2023-03-12T00:07:11.074Z,25.42
2023-03-12T00:08:11.085Z,31.24
2023-03-12T00:09:11.070Z,31.46
2023-03-12T00:10:11.074Z,29.94
2023-03-12T00:11:11.090Z,23.00
2023-03-12T00:12:11.071Z,28.70
2023-03-12T00:13:11.073Z,27.94
2023-03-12T00:14:11.086Z,28.68
2023-03-12T00:15:11.073Z,25.72
2023-03-12T00:16:11.197Z,26.10
2023-03-12T00:17:11.081Z,23.06
2023-03-12T00:18:11.074Z,26.32
2023-03-12T00:19:12.074Z,22.96
2023-03-12T00:20:11.075Z,25.42
2023-03-12T00:21:11.121Z,30.16
2023-03-12T00:22:11.076Z,25.98
2023-03-12T00:23:11.076Z,25.98
2023-03-12T00:24:11.072Z,28.02
2023-03-12T00:25:13.075Z,25.94
2023-03-12T00:26:11.073Z,25.78
2023-03-12T00:27:11.074Z,30.94
2023-03-12T00:28:11.073Z,36.26
2023-03-12T00:29:11.083Z,23.28
2023-03-12T00:30:11.079Z,35.72
2023-03-12T00:31:19.125Z,29.48
2023-03-12T00:32:11.069Z,28.52
2023-03-12T00:33:11.074Z,29.30
2023-03-12T00:34:11.074Z,29.52
2023-03-12T00:35:11.067Z,26.92
2023-03-12T00:36:11.093Z,30.36
2023-03-12T00:37:12.081Z,31.80
2023-03-12T00:38:11.067Z,31.22
2023-03-12T00:39:11.072Z,29.40
2023-03-12T00:40:11.082Z,20.74
2023-03-12T00:41:11.070Z,26.12
2023-03-12T00:42:11.074Z,25.22
2023-03-12T00:43:11.073Z,27.26
2023-03-12T00:44:11.072Z,29.84
2023-03-12T00:45:11.069Z,32.02
2023-03-12T00:46:11.101Z,28.18
2023-03-12T00:47:11.070Z,31.14
2023-03-12T00:48:11.068Z,27.60
2023-03-12T00:49:11.072Z,30.46
2023-03-12T00:50:11.084Z,32.56
2023-03-12T00:51:11.077Z,29.86
2023-03-12T00:52:11.077Z,32.18
2023-03-12T00:53:11.075Z,31.18
2023-03-12T00:54:11.074Z,23.46
2023-03-12T00:55:11.078Z,27.96
2023-03-12T00:56:11.067Z,28.90
2023-03-12T00:57:11.075Z,21.68
2023-03-12T00:58:11.078Z,25.36
2023-03-12T00:59:11.067Z,27.90
2023-03-12T01:00:14.075Z,27.02
2023-03-12T01:01:11.128Z,27.50
2023-03-12T01:02:11.063Z,25.92
2023-03-12T01:03:11.065Z,23.64
2023-03-12T01:04:11.121Z,25.04
2023-03-12T01:05:11.073Z,23.50
2023-03-12T01:06:11.085Z,22.00
2023-03-12T01:07:11.066Z,22.16
2023-03-12T01:08:11.073Z,20.80
2023-03-12T01:09:11.067Z,23.86
2023-03-12T01:10:11.065Z,27.08
2023-03-12T01:11:14.076Z,28.92
2023-03-12T01:12:11.069Z,21.14
2023-03-12T01:13:11.070Z,27.98
2023-03-12T01:14:11.077Z,29.14
2023-03-12T01:15:12.067Z,22.46
2023-03-12T01:16:11.122Z,26.26
2023-03-12T01:17:11.074Z,21.90
2023-03-12T01:18:11.079Z,26.62
2023-03-12T01:19:11.070Z,29.94
2023-03-12T01:20:11.078Z,24.52
2023-03-12T01:21:11.072Z,25.54
2023-03-12T01:22:11.066Z,19.34
2023-03-12T01:23:11.075Z,25.16
2023-03-12T01:24:11.072Z,27.30
2023-03-12T01:25:11.072Z,22.76
2023-03-12T01:26:11.075Z,29.78
2023-03-12T01:27:11.072Z,23.32
2023-03-12T01:28:11.076Z,25.76
2023-03-12T01:29:11.080Z,20.66
2023-03-12T01:30:11.070Z,26.40
2023-03-12T01:31:11.169Z,22.46
2023-03-12T01:32:11.077Z,25.38
2023-03-12T01:33:11.070Z,26.32
2023-03-12T01:34:11.082Z,20.08
2023-03-12T01:35:11.105Z,33.04
2023-03-12T01:36:15.118Z,22.84
2023-03-12T01:37:11.068Z,21.70
2023-03-12T01:38:12.074Z,24.72
2023-03-12T01:39:11.101Z,30.18
2023-03-12T01:40:16.072Z,19.44
2023-03-12T01:41:11.076Z,22.70
2023-03-12T01:42:11.075Z,30.58
2023-03-12T01:43:19.070Z,39.80
2023-03-12T01:44:14.073Z,26.14
2023-03-12T01:45:19.068Z,30.92
2023-03-12T01:46:19.067Z,24.08
2023-03-12T01:47:11.072Z,34.38
2023-03-12T01:48:11.070Z,30.76
2023-03-12T01:49:19.084Z,29.10
2023-03-12T01:50:11.074Z,20.00
2023-03-12T01:51:13.069Z,26.04
2023-03-12T01:52:15.077Z,31.58
2023-03-12T01:53:11.073Z,21.06
2023-03-12T01:54:19.066Z,28.20
2023-03-12T01:55:12.073Z,32.18
2023-03-12T01:56:11.064Z,32.92
2023-03-12T01:57:19.076Z,32.86
2023-03-12T01:58:11.064Z,26.80
2023-03-12T01:59:19.069Z,26.24
2023-03-12T02:00:15.077Z,23.68
2023-03-12T02:01:11.105Z,34.24
2023-03-12T02:02:11.063Z,31.88
2023-03-12T02:03:11.067Z,27.66
2023-03-12T02:04:11.110Z,27.68
2023-03-12T02:05:19.064Z,22.90
2023-03-12T02:06:13.066Z,34.40
2023-03-12T02:07:15.095Z,28.78
2023-03-12T02:08:11.069Z,31.54
2023-03-12T02:09:11.061Z,23.48
2023-03-12T02:10:11.064Z,33.86
2023-03-12T02:11:11.078Z,27.68
2023-03-12T02:12:11.074Z,24.76
2023-03-12T02:13:11.070Z,20.72
2023-03-12T02:14:11.076Z,34.34
2023-03-12T02:15:11.066Z,30.04
2023-03-12T02:16:11.081Z,29.88
2023-03-12T02:17:11.078Z,27.86
2023-03-12T02:18:15.075Z,37.84
2023-03-12T02:19:17.070Z,33.32
2023-03-12T02:20:23.076Z,32.36
2023-03-12T02:21:20.067Z,28.06
2023-03-12T02:22:11.067Z,24.26
2023-03-12T02:23:16.063Z,24.84
2023-03-12T02:24:19.071Z,30.04
2023-03-12T02:25:19.081Z,34.18
2023-03-12T02:26:11.095Z,31.88
2023-03-12T02:27:11.068Z,27.00
2023-03-12T02:28:13.078Z,36.42
2023-03-12T02:29:11.074Z,32.96
2023-03-12T02:30:12.067Z,33.40
2023-03-12T02:31:12.066Z,28.84
2023-03-12T02:32:15.105Z,42.32
2023-03-12T02:33:11.071Z,30.26
2023-03-12T02:34:11.069Z,18.14
2023-03-12T02:35:11.089Z,32.56
2023-03-12T02:36:11.139Z,34.16
2023-03-12T02:37:11.070Z,30.96
2023-03-12T02:38:19.070Z,32.84
2023-03-12T02:39:12.069Z,41.18
2023-03-12T02:40:21.080Z,30.48
2023-03-12T02:41:19.089Z,32.72
2023-03-12T02:42:11.077Z,54.10
2023-03-12T02:43:11.073Z,42.50
2023-03-12T02:44:21.088Z,47.48
2023-03-12T02:45:11.074Z,44.94
2023-03-12T02:46:11.157Z,49.12
2023-03-12T02:47:11.067Z,31.34
2023-03-12T02:48:11.071Z,26.84
2023-03-12T02:49:11.077Z,39.26
2023-03-12T02:50:11.077Z,45.02
2023-03-12T02:51:11.068Z,37.32
2023-03-12T02:52:11.079Z,38.40
2023-03-12T02:53:11.071Z,43.78
2023-03-12T02:54:11.073Z,32.62
2023-03-12T02:55:11.073Z,22.04
2023-03-12T02:56:11.076Z,43.22
2023-03-12T02:57:11.069Z,33.28
2023-03-12T02:58:11.073Z,31.90
2023-03-12T02:59:11.072Z,43.88
2023-03-12T03:00:11.069Z,35.90
2023-03-12T03:01:11.133Z,37.10
2023-03-12T03:02:11.072Z,35.16
2023-03-12T03:03:11.067Z,35.82
2023-03-12T03:04:11.113Z,43.44
2023-03-12T03:05:11.080Z,44.60
2023-03-12T03:06:11.080Z,37.26
2023-03-12T03:07:11.090Z,34.60
2023-03-12T03:08:11.073Z,43.50
2023-03-12T03:09:11.070Z,42.86
2023-03-12T03:10:11.087Z,37.38
2023-03-12T03:11:11.074Z,46.20
2023-03-12T03:12:11.069Z,49.54
2023-03-12T03:13:11.072Z,36.24
2023-03-12T03:14:11.076Z,37.68
2023-03-12T03:15:11.578Z,47.10
2023-03-12T03:16:11.081Z,40.12
2023-03-12T03:17:11.082Z,43.68
2023-03-12T03:18:11.072Z,49.42
2023-03-12T03:19:11.074Z,37.32
2023-03-12T03:20:13.086Z,38.00
2023-03-12T03:21:11.075Z,31.68
2023-03-12T03:22:11.072Z,34.52
2023-03-12T03:23:11.081Z,33.74
2023-03-12T03:24:11.077Z,32.04
2023-03-12T03:25:11.085Z,38.00
2023-03-12T03:26:11.076Z,37.36
2023-03-12T03:27:11.079Z,30.48
2023-03-12T03:28:11.076Z,38.72
2023-03-12T03:30:13.107Z,30.88
2023-03-12T03:31:11.138Z,40.50
2023-03-12T03:32:11.077Z,25.88
2023-03-12T03:33:11.081Z,43.96
2023-03-12T03:34:11.073Z,27.10
2023-03-12T03:35:11.076Z,31.42
2023-03-12T03:36:11.079Z,38.38
2023-03-12T03:37:11.074Z,31.76
2023-03-12T03:38:11.076Z,42.70
2023-03-12T03:39:11.081Z,48.62
2023-03-12T03:40:11.076Z,35.86
2023-03-12T03:41:11.074Z,51.52
2023-03-12T03:42:11.086Z,29.96
2023-03-12T03:43:11.080Z,30.48
2023-03-12T03:44:11.075Z,29.64
2023-03-12T03:45:11.084Z,37.04
2023-03-12T03:46:11.115Z,47.42
2023-03-12T03:47:11.077Z,47.16
2023-03-12T03:48:11.085Z,42.56
2023-03-12T03:49:11.078Z,37.04
2023-03-12T03:50:11.079Z,39.84
2023-03-12T03:51:11.110Z,39.20
2023-03-12T03:52:11.076Z,39.22
2023-03-12T03:53:11.078Z,39.00
2023-03-12T03:54:11.083Z,49.30
2023-03-12T03:55:11.074Z,45.46
2023-03-12T03:56:11.072Z,52.46
2023-03-12T03:57:11.085Z,42.76
2023-03-12T03:58:11.076Z,30.32
2023-03-12T03:59:11.072Z,36.98
2023-03-12T04:00:13.117Z,40.28
2023-03-12T04:01:12.061Z,49.68
2023-03-12T04:02:11.060Z,46.98
2023-03-12T04:03:11.075Z,51.96
2023-03-12T04:04:11.060Z,37.52
2023-03-12T04:05:11.185Z,44.22
2023-03-12T04:06:11.069Z,44.00
2023-03-12T04:07:11.064Z,44.04
2023-03-12T04:08:11.073Z,33.46
2023-03-12T04:09:11.068Z,56.20
2023-03-12T04:10:11.062Z,31.30
2023-03-12T04:11:14.064Z,33.30
2023-03-12T04:12:11.061Z,38.92
2023-03-12T04:13:11.062Z,32.12
2023-03-12T04:14:11.060Z,34.66
2023-03-12T04:15:11.068Z,45.18
2023-03-12T04:16:11.140Z,47.30
2023-03-12T04:17:11.061Z,46.66
2023-03-12T04:18:11.086Z,37.68
2023-03-12T04:19:11.060Z,41.56
2023-03-12T04:20:12.059Z,31.92
2023-03-12T04:21:11.060Z,48.68
2023-03-12T04:22:11.068Z,38.98
2023-03-12T04:23:11.058Z,43.44
2023-03-12T04:24:14.070Z,35.50
2023-03-12T04:25:11.067Z,43.30
2023-03-12T04:26:11.059Z,38.32
2023-03-12T04:27:11.060Z,43.30
2023-03-12T04:28:11.061Z,37.14
2023-03-12T04:29:11.071Z,45.86
2023-03-12T04:30:11.073Z,33.10
2023-03-12T04:31:11.131Z,36.56
2023-03-12T04:32:11.061Z,51.66
2023-03-12T04:33:11.059Z,50.28
2023-03-12T04:34:12.614Z,48.00
2023-03-12T04:35:11.062Z,36.58
2023-03-12T04:36:11.121Z,45.64
2023-03-12T04:37:11.068Z,64.70
2023-03-12T04:38:11.072Z,47.72
2023-03-12T04:39:13.061Z,34.18
2023-03-12T04:40:11.078Z,25.70
2023-03-12T04:41:13.083Z,44.86
2023-03-12T04:42:11.079Z,38.54
2023-03-12T04:43:11.063Z,45.02
2023-03-12T04:44:12.830Z,38.42
2023-03-12T04:45:11.066Z,40.78
2023-03-12T04:46:11.153Z,35.72
2023-03-12T04:47:11.073Z,34.20
2023-03-12T04:48:11.083Z,42.80
2023-03-12T04:49:11.066Z,54.50
2023-03-12T04:50:11.066Z,38.58
2023-03-12T04:51:11.080Z,45.28
2023-03-12T04:52:11.064Z,42.14
2023-03-12T04:53:11.075Z,57.02
2023-03-12T04:54:11.078Z,60.88
2023-03-12T04:55:11.066Z,46.76
2023-03-12T04:56:11.071Z,54.62
2023-03-12T04:57:11.076Z,38.02
2023-03-12T04:58:11.077Z,57.60
2023-03-12T04:59:11.069Z,27.38
2023-03-12T05:00:14.088Z,46.08
2023-03-12T05:01:18.071Z,58.90
2023-03-12T05:02:11.070Z,56.16
2023-03-12T05:03:11.076Z,47.58
2023-03-12T05:04:11.154Z,41.90
2023-03-12T05:05:12.089Z,54.96
2023-03-12T05:06:11.071Z,45.98
2023-03-12T05:07:11.071Z,48.20
2023-03-12T05:08:11.070Z,44.02
2023-03-12T05:09:11.071Z,60.04
2023-03-12T05:10:11.072Z,55.94
2023-03-12T05:11:11.080Z,48.78
2023-03-12T05:12:11.083Z,46.20
2023-03-12T05:13:15.079Z,40.36
2023-03-12T05:14:12.074Z,48.78
2023-03-12T05:15:11.070Z,43.84
2023-03-12T05:16:11.103Z,58.02
2023-03-12T05:17:11.077Z,57.24
2023-03-12T05:18:11.074Z,52.74
2023-03-12T05:19:11.080Z,52.08
2023-03-12T05:20:11.068Z,39.62
2023-03-12T05:21:19.074Z,38.56
2023-03-12T05:22:11.091Z,41.78
2023-03-12T05:23:11.075Z,51.40
2023-03-12T05:24:11.078Z,53.08
2023-03-12T05:25:11.078Z,55.36
2023-03-12T05:26:17.069Z,48.26
2023-03-12T05:27:12.219Z,41.52
2023-03-12T05:28:11.075Z,35.84
2023-03-12T05:29:11.072Z,36.70
2023-03-12T05:30:11.078Z,54.44
2023-03-12T05:31:11.116Z,51.10
2023-03-12T05:32:11.071Z,49.72
2023-03-12T05:33:11.070Z,52.00
2023-03-12T05:34:11.072Z,52.60
2023-03-12T05:35:11.078Z,35.32
2023-03-12T05:36:11.153Z,33.74
2023-03-12T05:37:11.074Z,49.82
2023-03-12T05:38:11.079Z,55.02
2023-03-12T05:39:11.069Z,35.74
2023-03-12T05:40:12.076Z,55.48
2023-03-12T05:41:15.082Z,47.98
2023-03-12T05:42:11.074Z,49.20
2023-03-12T05:43:11.091Z,48.12
2023-03-12T05:44:12.080Z,45.26
2023-03-12T05:45:11.076Z,51.96
2023-03-12T05:46:11.143Z,41.54
2023-03-12T05:47:11.074Z,58.74
2023-03-12T05:48:11.075Z,56.52
2023-03-12T05:49:11.072Z,45.08
2023-03-12T05:50:11.074Z,48.58
2023-03-12T05:51:11.076Z,32.10
2023-03-12T05:52:11.071Z,40.28
2023-03-12T05:53:11.079Z,36.88
2023-03-12T05:54:11.082Z,49.68
2023-03-12T05:55:11.073Z,60.72
2023-03-12T05:56:13.078Z,60.58
2023-03-12T05:57:11.094Z,57.30
2023-03-12T05:58:11.087Z,43.54
2023-03-12T05:59:11.088Z,49.88
2023-03-12T06:00:12.081Z,45.74
2023-03-12T06:01:14.072Z,39.66
2023-03-12T06:02:11.130Z,44.34
2023-03-12T06:03:11.123Z,35.90
2023-03-12T06:04:11.070Z,53.54
2023-03-12T06:05:11.089Z,55.24
2023-03-12T06:06:11.068Z,40.02
2023-03-12T06:07:11.069Z,43.22
2023-03-12T06:08:12.084Z,56.82
2023-03-12T06:09:11.073Z,60.56
2023-03-12T06:10:11.071Z,58.36
2023-03-12T06:11:11.065Z,41.60
2023-03-12T06:12:11.069Z,35.58
2023-03-12T06:13:11.075Z,40.74
2023-03-12T06:14:11.070Z,43.52
2023-03-12T06:15:11.071Z,45.42
2023-03-12T06:16:16.164Z,50.16
2023-03-12T06:17:11.069Z,47.90
2023-03-12T06:18:11.070Z,53.28
2023-03-12T06:19:11.068Z,38.64
2023-03-12T06:20:11.077Z,57.92
2023-03-12T06:21:14.068Z,53.10
2023-03-12T06:22:11.069Z,41.62
2023-03-12T06:23:11.078Z,46.10
2023-03-12T06:24:11.067Z,42.94
2023-03-12T06:25:11.070Z,46.98
2023-03-12T06:26:11.071Z,43.22
2023-03-12T06:27:11.067Z,51.02
2023-03-12T06:28:11.070Z,40.84
2023-03-12T06:29:11.077Z,45.60
2023-03-12T06:30:11.068Z,43.80
2023-03-12T06:31:11.151Z,38.30
2023-03-12T06:32:11.075Z,55.30
2023-03-12T06:33:12.066Z,35.92
2023-03-12T06:34:11.076Z,32.52
2023-03-12T06:35:11.078Z,42.84
2023-03-12T06:36:11.071Z,43.52
2023-03-12T06:37:11.073Z,49.64
2023-03-12T06:38:11.076Z,37.20
2023-03-12T06:39:11.068Z,44.14
2023-03-12T06:40:13.135Z,54.58
2023-03-12T06:41:11.073Z,48.28
2023-03-12T06:42:11.070Z,44.58
2023-03-12T06:43:15.073Z,48.04
2023-03-12T06:44:11.112Z,37.72
2023-03-12T06:45:11.080Z,56.18
2023-03-12T06:46:12.107Z,49.14
2023-03-12T06:47:11.084Z,53.52
2023-03-12T06:48:11.078Z,48.30
2023-03-12T06:49:11.071Z,38.16
2023-03-12T06:50:11.085Z,50.56
2023-03-12T06:51:11.081Z,34.90
2023-03-12T06:52:11.074Z,46.04
2023-03-12T06:53:11.072Z,35.06
2023-03-12T06:54:11.079Z,49.70
2023-03-12T06:55:11.073Z,39.24
2023-03-12T06:56:11.083Z,34.08
2023-03-12T06:57:11.075Z,44.66
2023-03-12T06:58:11.073Z,48.52
2023-03-12T06:59:11.079Z,55.14
2023-03-12T07:00:11.071Z,43.96
2023-03-12T07:01:11.056Z,48.64
2023-03-12T07:02:12.121Z,55.08
2023-03-12T07:03:11.058Z,49.80
2023-03-12T07:04:11.060Z,57.56
2023-03-12T07:05:11.148Z,39.18
2023-03-12T07:06:15.071Z,43.78
2023-03-12T07:07:12.087Z,45.54
2023-03-12T07:08:11.060Z,42.38
2023-03-12T07:09:11.070Z,53.76
2023-03-12T07:10:12.071Z,51.92
2023-03-12T07:11:11.064Z,31.62
2023-03-12T07:12:11.061Z,54.86
2023-03-12T07:13:11.063Z,46.08
2023-03-12T07:14:11.064Z,52.06
2023-03-12T07:15:11.064Z,46.78
2023-03-12T07:16:11.077Z,46.70
2023-03-12T07:17:11.070Z,50.58
2023-03-12T07:18:11.062Z,40.06
2023-03-12T07:19:11.063Z,38.92
2023-03-12T07:20:11.074Z,43.22
2023-03-12T07:21:11.064Z,39.64
2023-03-12T07:22:11.170Z,47.16
2023-03-12T07:23:11.070Z,49.10
2023-03-12T07:24:11.078Z,34.38
2023-03-12T07:25:11.095Z,57.90
2023-03-12T07:26:11.075Z,35.60
2023-03-12T07:27:11.126Z,39.08
2023-03-12T07:28:11.069Z,44.28
2023-03-12T07:29:11.076Z,43.50
2023-03-12T07:30:11.076Z,52.30
2023-03-12T07:31:11.094Z,53.22
2023-03-12T07:32:11.076Z,45.26
2023-03-12T07:33:13.226Z,35.52
2023-03-12T07:34:11.230Z,43.14
2023-03-12T07:35:11.072Z,35.72
2023-03-12T07:36:11.163Z,45.24
2023-03-12T07:37:11.106Z,44.74
2023-03-12T07:38:11.097Z,42.96
2023-03-12T07:39:11.072Z,45.54
2023-03-12T07:40:11.065Z,28.78
2023-03-12T07:41:11.217Z,33.06
2023-03-12T07:42:11.077Z,35.80
2023-03-12T07:43:15.063Z,33.76
2023-03-12T07:44:11.151Z,39.42
2023-03-12T07:45:11.095Z,50.88
2023-03-12T07:46:11.105Z,49.24
2023-03-12T07:47:23.062Z,43.38
2023-03-12T07:48:13.142Z,45.10
2023-03-12T07:49:11.070Z,42.06
2023-03-12T07:50:11.141Z,30.22
2023-03-12T07:51:11.081Z,46.32
2023-03-12T07:52:13.113Z,48.94
2023-03-12T07:53:11.061Z,35.14
2023-03-12T07:54:11.064Z,31.88
2023-03-12T07:55:11.193Z,40.28
2023-03-12T07:56:11.176Z,38.68
2023-03-12T07:57:11.337Z,42.08
2023-03-12T07:58:11.178Z,30.50
2023-03-12T07:59:11.204Z,34.30
2023-03-12T08:00:11.257Z,38.74
2023-03-12T08:01:11.106Z,35.56
2023-03-12T08:02:11.223Z,36.52
2023-03-12T08:03:11.520Z,46.50
2023-03-12T08:04:11.177Z,30.72
2023-03-12T08:05:11.132Z,36.06
2023-03-12T08:06:11.112Z,34.24
2023-03-12T08:07:11.117Z,30.46
2023-03-12T08:08:11.177Z,38.88
2023-03-12T08:09:11.088Z,40.24
2023-03-12T08:10:11.074Z,39.06
2023-03-12T08:11:11.065Z,38.32
2023-03-12T08:12:11.169Z,34.54
2023-03-12T08:13:11.103Z,40.82
2023-03-12T08:14:11.102Z,34.06
2023-03-12T08:15:11.062Z,25.56
2023-03-12T08:16:11.128Z,43.36
2023-03-12T08:17:11.066Z,37.60
2023-03-12T08:18:11.061Z,52.70
2023-03-12T08:19:11.068Z,31.34
2023-03-12T08:20:13.069Z,37.92
2023-03-12T08:21:11.065Z,46.88
2023-03-12T08:22:11.063Z,26.48
2023-03-12T08:23:11.074Z,33.12
2023-03-12T08:24:11.066Z,37.54
2023-03-12T08:25:11.073Z,35.00
2023-03-12T08:26:11.073Z,42.74
2023-03-12T08:27:11.068Z,33.74
2023-03-12T08:28:11.062Z,47.00
2023-03-12T08:29:11.066Z,43.68
2023-03-12T08:30:11.068Z,39.12
2023-03-12T08:31:11.062Z,28.66
2023-03-12T08:32:11.165Z,38.46
2023-03-12T08:33:11.109Z,41.24
2023-03-12T08:34:11.064Z,43.66
2023-03-12T08:35:11.074Z,35.26
2023-03-12T08:36:11.075Z,36.88
2023-03-12T08:37:11.064Z,35.44
2023-03-12T08:38:11.075Z,35.74
2023-03-12T08:39:11.073Z,39.36
2023-03-12T08:40:15.153Z,32.72
2023-03-12T08:41:11.065Z,39.78
2023-03-12T08:42:11.068Z,28.92
2023-03-12T08:43:11.068Z,40.94
2023-03-12T08:44:11.082Z,37.34
2023-03-12T08:45:11.079Z,31.92
2023-03-12T08:46:12.308Z,32.06
2023-03-12T08:47:11.074Z,43.82
2023-03-12T08:48:11.072Z,28.20
2023-03-12T08:49:11.070Z,30.56
2023-03-12T08:50:11.067Z,36.20
2023-03-12T08:51:11.086Z,31.28
2023-03-12T08:52:11.073Z,34.46
2023-03-12T08:53:11.083Z,37.24
2023-03-12T08:54:11.094Z,35.84
2023-03-12T08:55:11.080Z,42.64
2023-03-12T08:56:11.070Z,47.76
2023-03-12T08:57:11.068Z,34.24
2023-03-12T08:58:11.073Z,35.00
2023-03-12T08:59:11.082Z,29.88
2023-03-12T09:00:12.072Z,39.46
2023-03-12T09:01:11.073Z,36.88
2023-03-12T09:02:12.077Z,37.10
2023-03-12T09:03:11.161Z,39.14
2023-03-12T09:04:11.204Z,35.70
2023-03-12T09:05:11.071Z,45.30
2023-03-12T09:06:14.072Z,35.80
2023-03-12T09:07:11.076Z,42.90
2023-03-12T09:08:11.073Z,34.82
2023-03-12T09:09:11.074Z,26.28
2023-03-12T09:10:11.094Z,30.80
2023-03-12T09:11:11.096Z,32.02
2023-03-12T09:12:11.076Z,28.30
2023-03-12T09:13:11.082Z,30.58
2023-03-12T09:15:13.100Z,31.94
2023-03-12T09:16:11.083Z,30.72
2023-03-12T09:17:11.088Z,58.00
2023-03-12T09:18:11.089Z,36.88
2023-03-12T09:19:11.077Z,42.02
2023-03-12T09:20:13.082Z,40.78
2023-03-12T09:21:11.073Z,37.06
2023-03-12T09:22:11.079Z,39.72
2023-03-12T09:23:11.074Z,43.30
2023-03-12T09:24:11.073Z,32.24
2023-03-12T09:25:11.080Z,38.66
2023-03-12T09:26:13.096Z,53.78
2023-03-12T09:27:11.072Z,28.92
2023-03-12T09:28:11.080Z,29.78
2023-03-12T09:29:11.080Z,36.10
2023-03-12T09:30:11.074Z,33.98
2023-03-12T09:31:11.126Z,30.42
2023-03-12T09:32:11.078Z,28.12
2023-03-12T09:33:11.071Z,42.36
2023-03-12T09:34:11.067Z,36.92
2023-03-12T09:35:11.100Z,36.88
2023-03-12T09:36:11.197Z,31.94
2023-03-12T09:37:11.078Z,36.02
2023-03-12T09:38:13.077Z,42.80
2023-03-12T09:39:11.070Z,27.68
2023-03-12T09:40:15.078Z,33.04
2023-03-12T09:41:19.069Z,29.80
2023-03-12T09:42:19.077Z,25.98
2023-03-12T09:43:17.070Z,27.02
2023-03-12T09:44:22.069Z,28.48
2023-03-12T09:45:17.076Z,31.38
2023-03-12T09:46:19.117Z,33.58
2023-03-12T09:47:21.097Z,28.18
2023-03-12T09:48:19.074Z,36.84
2023-03-12T09:49:19.075Z,36.66
2023-03-12T09:50:19.075Z,30.02
2023-03-12T09:51:18.074Z,30.86
2023-03-12T09:52:19.075Z,34.26
2023-03-12T09:53:21.069Z,26.08
2023-03-12T09:54:21.073Z,29.66
2023-03-12T09:55:16.069Z,28.20
2023-03-12T09:56:16.074Z,34.50
2023-03-12T09:57:19.074Z,25.88
2023-03-12T09:58:19.072Z,36.10
2023-03-12T09:59:13.085Z,32.22
2023-03-12T10:00:13.080Z,30.50
2023-03-12T10:01:21.056Z,36.94
2023-03-12T10:02:19.057Z,28.06
2023-03-12T10:03:19.135Z,39.24
2023-03-12T10:04:20.092Z,30.32
2023-03-12T10:05:20.182Z,35.46
2023-03-12T10:06:19.082Z,40.72
2023-03-12T10:07:23.062Z,33.36
2023-03-12T10:08:24.662Z,32.78
2023-03-12T10:09:23.065Z,28.24
2023-03-12T10:10:19.074Z,26.34
2023-03-12T10:11:19.063Z,28.66
2023-03-12T10:12:21.060Z,30.50
2023-03-12T10:13:19.055Z,29.62
2023-03-12T10:14:24.242Z,35.08
2023-03-12T10:15:21.064Z,29.88
2023-03-12T10:16:19.145Z,43.88
2023-03-12T10:17:21.062Z,45.76
2023-03-12T10:18:21.198Z,31.86
2023-03-12T10:19:21.067Z,31.44
2023-03-12T10:20:19.062Z,34.70
2023-03-12T10:21:19.068Z,37.40
2023-03-12T10:22:21.066Z,32.78
2023-03-12T10:23:19.071Z,45.50
2023-03-12T10:24:19.061Z,37.10
2023-03-12T10:25:19.064Z,31.60
2023-03-12T10:26:19.075Z,42.36
2023-03-12T10:27:15.074Z,35.44
2023-03-12T10:28:18.064Z,30.06
2023-03-12T10:29:19.067Z,36.50
2023-03-12T10:30:19.066Z,44.40
2023-03-12T10:31:18.157Z,35.18
2023-03-12T10:32:23.144Z,34.10
2023-03-12T10:33:15.063Z,34.18
2023-03-12T10:34:19.074Z,40.20
2023-03-12T10:35:20.454Z,38.90
2023-03-12T10:36:16.062Z,27.46
2023-03-12T10:37:18.059Z,37.90
2023-03-12T10:38:21.064Z,42.22
2023-03-12T10:39:15.061Z,37.42
2023-03-12T10:40:19.063Z,33.68
2023-03-12T10:41:21.069Z,35.40
2023-03-12T10:42:18.072Z,54.22
2023-03-12T10:43:13.069Z,28.42
2023-03-12T10:44:13.064Z,32.10
2023-03-12T10:45:21.063Z,39.30
2023-03-12T10:46:21.082Z,35.32
2023-03-12T10:47:19.067Z,34.54
2023-03-12T10:48:15.070Z,32.86
2023-03-12T10:49:19.065Z,33.46
2023-03-12T10:50:18.060Z,37.36
2023-03-12T10:51:14.063Z,58.62
2023-03-12T10:52:19.073Z,36.14
2023-03-12T10:53:19.063Z,46.88
2023-03-12T10:54:19.062Z,47.54
2023-03-12T10:55:21.066Z,30.16
2023-03-12T10:56:11.064Z,32.22
2023-03-12T10:57:11.072Z,32.30
2023-03-12T10:58:19.073Z,43.70
2023-03-12T10:59:19.089Z,44.16
2023-03-12T11:00:15.068Z,31.96
2023-03-12T11:01:19.183Z,37.58
2023-03-12T11:02:19.088Z,28.18
2023-03-12T11:03:19.062Z,34.68
2023-03-12T11:04:17.065Z,39.22
2023-03-12T11:05:19.084Z,39.08
2023-03-12T11:06:15.136Z,38.40
2023-03-12T11:07:19.066Z,32.24
2023-03-12T11:08:19.066Z,37.20
2023-03-12T11:09:18.074Z,38.38
2023-03-12T11:10:16.066Z,41.34
2023-03-12T11:11:11.070Z,33.68
2023-03-12T11:12:19.068Z,40.30
2023-03-12T11:13:19.074Z,28.22
2023-03-12T11:14:20.065Z,23.94
2023-03-12T11:15:19.067Z,29.12
2023-03-12T11:16:21.149Z,32.28
2023-03-12T11:17:19.072Z,32.58
2023-03-12T11:18:19.076Z,38.00
2023-03-12T11:19:14.074Z,36.72
2023-03-12T11:20:19.070Z,32.74
2023-03-12T11:21:15.068Z,40.96
2023-03-12T11:22:11.074Z,40.52
2023-03-12T11:23:19.069Z,35.56
2023-03-12T11:24:13.067Z,34.42
2023-03-12T11:25:19.072Z,34.90
2023-03-12T11:26:16.071Z,33.76
2023-03-12T11:27:19.069Z,34.14
2023-03-12T11:28:19.075Z,38.48
2023-03-12T11:29:19.133Z,37.52
2023-03-12T11:30:17.134Z,28.84
2023-03-12T11:31:15.234Z,31.96
2023-03-12T11:32:19.149Z,33.70
2023-03-12T11:33:11.064Z,30.68
2023-03-12T11:34:19.076Z,31.96
2023-03-12T11:35:13.076Z,30.08
2023-03-12T11:36:21.066Z,34.00
2023-03-12T11:37:21.070Z,33.34
2023-03-12T11:38:18.068Z,30.22
2023-03-12T11:39:19.076Z,38.32
2023-03-12T11:40:23.069Z,33.62
2023-03-12T11:41:19.067Z,33.08
2023-03-12T11:42:21.078Z,29.58
2023-03-12T11:43:26.401Z,33.52
2023-03-12T11:44:23.083Z,23.84
2023-03-12T11:45:18.079Z,33.58
2023-03-12T11:46:19.100Z,28.14
2023-03-12T11:47:19.096Z,32.68
2023-03-12T11:48:19.119Z,33.14
2023-03-12T11:49:19.075Z,39.22
2023-03-12T11:50:19.077Z,28.00
2023-03-12T11:51:19.069Z,30.92
2023-03-12T11:52:19.066Z,35.62
2023-03-12T11:53:19.070Z,28.24
2023-03-12T11:54:19.078Z,34.12
2023-03-12T11:55:19.071Z,28.94
2023-03-12T11:56:21.260Z,23.90
2023-03-12T11:57:21.075Z,34.20
2023-03-12T11:58:21.077Z,27.54
2023-03-12T11:59:21.082Z,37.52
2023-03-12T12:00:19.093Z,29.48
2023-03-12T12:01:23.070Z,33.56
2023-03-12T12:02:19.103Z,24.66
2023-03-12T12:03:19.142Z,32.70
2023-03-12T12:04:19.082Z,32.58
2023-03-12T12:05:21.077Z,26.78
2023-03-12T12:06:19.077Z,42.06
2023-03-12T12:07:19.069Z,26.48
2023-03-12T12:08:19.072Z,29.66
2023-03-12T12:09:19.082Z,31.54
2023-03-12T12:10:19.219Z,27.74
2023-03-12T12:11:21.076Z,37.42
2023-03-12T12:12:23.075Z,26.44
2023-03-12T12:13:19.075Z,26.80
2023-03-12T12:14:19.083Z,39.38
2023-03-12T12:15:21.082Z,27.06
2023-03-12T12:16:19.132Z,23.90
2023-03-12T12:17:21.075Z,22.48
2023-03-12T12:18:19.077Z,26.04
2023-03-12T12:19:19.078Z,28.44
2023-03-12T12:20:23.081Z,30.66
2023-03-12T12:21:19.080Z,26.44
2023-03-12T12:22:19.080Z,22.60
2023-03-12T12:23:19.073Z,15.24
2023-03-12T12:24:19.076Z,23.46
2023-03-12T12:25:19.088Z,17.68
2023-03-12T12:26:17.098Z,21.16
2023-03-12T12:27:19.078Z,23.12
2023-03-12T12:28:21.082Z,16.52
2023-03-12T12:29:21.076Z,28.28
2023-03-12T12:30:19.214Z,20.86
2023-03-12T12:31:19.164Z,22.92
2023-03-12T12:32:15.104Z,22.84
2023-03-12T12:33:21.079Z,17.46
2023-03-12T12:34:19.078Z,19.72
2023-03-12T12:35:19.090Z,17.54
2023-03-12T12:36:11.176Z,19.82
2023-03-12T12:37:21.084Z,26.68
2023-03-12T12:38:19.079Z,21.84
2023-03-12T12:39:19.091Z,15.96
2023-03-12T12:40:18.144Z,13.08
2023-03-12T12:41:23.080Z,18.66
2023-03-12T12:42:14.100Z,16.20
2023-03-12T12:43:23.081Z,17.48
2023-03-12T12:44:16.078Z,27.50
2023-03-12T12:45:14.098Z,24.36
2023-03-12T12:46:18.171Z,21.38
2023-03-12T12:47:16.080Z,17.88
2023-03-12T12:48:18.102Z,20.72
2023-03-12T12:49:21.087Z,15.40
2023-03-12T12:50:17.095Z,14.40
2023-03-12T12:51:11.092Z,12.52
2023-03-12T12:52:16.089Z,23.98
2023-03-12T12:53:19.086Z,14.70
2023-03-12T12:54:21.080Z,21.46